sensor_id;sensor_type;location;lat;lon;timestamp;noise_LAeq;noise_LA_min;noise_LA_max;noise_LA01;noise_LA95
69617;Laerm;58075;52.218;4.640;2022-10-10T00:00:09;40.68;38.50;43.61;;
69617;Laerm;58075;52.218;4.640;2022-10-10T00:00:19;41.78;38.27;44.57;;
69617;Laerm;58075;52.218;4.640;2022-10-10T00:00:30;41.19;38.84;43.14;;
69617;Laerm;58075;52.218;4.640;2022-10-10T00:00:40;39.99;37.35;43.81;;
69617;Laerm;58075;52.218;4.640;2022-10-10T00:00:51;39.03;37.03;40.90;;
69617;Laerm;58075;52.218;4.640;2022-10-10T00:01:01;41.89;37.78;46.95;;
69617;Laerm;58075;52.218;4.640;2022-10-10T00:01:12;40.58;37.32;43.94;;
69617;Laerm;58075;52.218;4.640;2022-10-10T00:01:23;40.07;37.85;42.29;;
69617;Laerm;58075;52.218;4.640;2022-10-10T00:01:34;40.65;38.03;43.73;;
69617;Laerm;58075;52.218;4.640;2022-10-10T00:01:45;39.40;36.71;44.65;;
69617;Laerm;58075;52.218;4.640;2022-10-10T00:01:55;38.91;36.27;42.93;;
69617;Laerm;58075;52.218;4.640;2022-10-10T00:02:05;39.36;35.36;45.25;;
69617;Laerm;58075;52.218;4.640;2022-10-10T00:02:16;42.59;36.05;49.24;;
69617;Laerm;58075;52.218;4.640;2022-10-10T00:02:26;42.78;38.85;47.98;;
69617;Laerm;58075;52.218;4.640;2022-10-10T00:02:36;41.49;36.01;46.02;;
69617;Laerm;58075;52.218;4.640;2022-10-10T00:02:46;39.08;35.43;44.26;;
69617;Laerm;58075;52.218;4.640;2022-10-10T00:02:57;38.15;35.56;41.36;;
69617;Laerm;58075;52.218;4.640;2022-10-10T00:03:07;40.09;36.87;44.03;;
69617;Laerm;58075;52.218;4.640;2022-10-10T00:03:18;38.93;35.80;43.88;;
69617;Laerm;58075;52.218;4.640;2022-10-10T00:03:28;39.98;36.04;44.61;;
69617;Laerm;58075;52.218;4.640;2022-10-10T00:03:39;39.35;36.80;41.84;;
69617;Laerm;58075;52.218;4.640;2022-10-10T00:03:49;39.31;35.78;43.86;;
69617;Laerm;58075;52.218;4.640;2022-10-10T00:03:59;40.68;37.70;45.05;;
69617;Laerm;58075;52.218;4.640;2022-10-10T00:04:10;40.99;38.15;44.84;;
69617;Laerm;58075;52.218;4.640;2022-10-10T00:04:20;40.12;37.40;45.58;;
69617;Laerm;58075;52.218;4.640;2022-10-10T00:04:30;40.07;37.06;42.53;;
69617;Laerm;58075;52.218;4.640;2022-10-10T00:04:41;41.95;38.49;45.63;;
69617;Laerm;58075;52.218;4.640;2022-10-10T00:04:51;41.44;37.84;44.72;;
69617;Laerm;58075;52.218;4.640;2022-10-10T00:05:02;42.33;39.75;45.44;;
69617;Laerm;58075;52.218;4.640;2022-10-10T00:05:12;41.88;38.21;45.97;;
69617;Laerm;58075;52.218;4.640;2022-10-10T00:05:22;41.61;38.22;46.10;;
69617;Laerm;58075;52.218;4.640;2022-10-10T00:05:33;42.05;39.53;44.91;;
69617;Laerm;58075;52.218;4.640;2022-10-10T00:05:44;41.23;37.81;45.20;;
69617;Laerm;58075;52.218;4.640;2022-10-10T00:05:54;40.37;37.61;42.77;;
69617;Laerm;58075;52.218;4.640;2022-10-10T00:06:04;41.02;38.08;43.88;;
69617;Laerm;58075;52.218;4.640;2022-10-10T00:06:15;41.67;38.88;44.77;;
69617;Laerm;58075;52.218;4.640;2022-10-10T00:06:26;42.41;38.01;45.31;;
69617;Laerm;58075;52.218;4.640;2022-10-10T00:06:36;40.24;37.59;43.47;;
69617;Laerm;58075;52.218;4.640;2022-10-10T00:06:47;40.73;37.84;44.19;;
69617;Laerm;58075;52.218;4.640;2022-10-10T00:06:57;38.99;36.76;41.31;;
69617;Laerm;58075;52.218;4.640;2022-10-10T00:07:07;41.19;37.07;48.72;;
69617;Laerm;58075;52.218;4.640;2022-10-10T00:07:18;39.80;37.46;42.73;;
69617;Laerm;58075;52.218;4.640;2022-10-10T00:07:29;40.91;37.50;44.81;;
69617;Laerm;58075;52.218;4.640;2022-10-10T00:07:39;39.94;37.65;42.93;;
69617;Laerm;58075;52.218;4.640;2022-10-10T00:07:49;39.12;36.66;41.58;;
69617;Laerm;58075;52.218;4.640;2022-10-10T00:08:00;39.94;36.31;42.97;;
69617;Laerm;58075;52.218;4.640;2022-10-10T00:08:10;39.31;36.28;42.53;;
69617;Laerm;58075;52.218;4.640;2022-10-10T00:08:20;39.66;36.13;42.08;;
69617;Laerm;58075;52.218;4.640;2022-10-10T00:08:31;39.27;36.14;42.57;;
69617;Laerm;58075;52.218;4.640;2022-10-10T00:08:41;39.29;37.11;42.17;;
69617;Laerm;58075;52.218;4.640;2022-10-10T00:08:52;38.09;36.12;40.75;;
69617;Laerm;58075;52.218;4.640;2022-10-10T00:09:03;38.73;36.20;42.14;;
69617;Laerm;58075;52.218;4.640;2022-10-10T00:09:14;39.36;35.79;45.58;;
69617;Laerm;58075;52.218;4.640;2022-10-10T00:09:24;38.74;35.57;43.62;;
69617;Laerm;58075;52.218;4.640;2022-10-10T00:09:34;39.34;37.55;41.55;;
69617;Laerm;58075;52.218;4.640;2022-10-10T00:09:45;40.15;36.67;45.58;;
69617;Laerm;58075;52.218;4.640;2022-10-10T00:09:55;42.17;39.48;45.21;;
69617;Laerm;58075;52.218;4.640;2022-10-10T00:10:06;39.81;36.37;43.66;;
69617;Laerm;58075;52.218;4.640;2022-10-10T00:10:16;39.28;36.45;43.36;;
69617;Laerm;58075;52.218;4.640;2022-10-10T00:10:26;40.41;37.81;43.19;;
69617;Laerm;58075;52.218;4.640;2022-10-10T00:10:37;39.80;37.81;42.11;;
69617;Laerm;58075;52.218;4.640;2022-10-10T00:10:47;39.07;35.62;44.00;;
69617;Laerm;58075;52.218;4.640;2022-10-10T00:10:57;38.23;35.90;40.94;;
69617;Laerm;58075;52.218;4.640;2022-10-10T00:11:08;38.11;35.77;40.95;;
69617;Laerm;58075;52.218;4.640;2022-10-10T00:11:20;37.15;35.19;39.19;;
69617;Laerm;58075;52.218;4.640;2022-10-10T00:11:31;38.40;35.61;41.59;;
69617;Laerm;58075;52.218;4.640;2022-10-10T00:11:41;37.70;35.11;39.73;;
69617;Laerm;58075;52.218;4.640;2022-10-10T00:11:51;38.12;34.71;43.15;;
69617;Laerm;58075;52.218;4.640;2022-10-10T00:12:02;39.70;36.33;43.63;;
69617;Laerm;58075;52.218;4.640;2022-10-10T00:12:12;38.84;36.54;42.28;;
69617;Laerm;58075;52.218;4.640;2022-10-10T00:12:22;38.80;35.87;40.92;;
69617;Laerm;58075;52.218;4.640;2022-10-10T00:12:33;40.14;37.67;43.72;;
69617;Laerm;58075;52.218;4.640;2022-10-10T00:12:43;39.96;36.86;44.90;;
69617;Laerm;58075;52.218;4.640;2022-10-10T00:12:53;37.15;35.18;39.27;;
69617;Laerm;58075;52.218;4.640;2022-10-10T00:13:04;35.62;33.94;37.31;;
69617;Laerm;58075;52.218;4.640;2022-10-10T00:13:14;36.99;34.54;41.07;;
69617;Laerm;58075;52.218;4.640;2022-10-10T00:13:25;37.67;35.73;40.28;;
69617;Laerm;58075;52.218;4.640;2022-10-10T00:13:35;38.56;36.26;41.36;;
69617;Laerm;58075;52.218;4.640;2022-10-10T00:13:46;39.56;37.10;42.23;;
69617;Laerm;58075;52.218;4.640;2022-10-10T00:13:56;40.41;37.12;43.93;;
69617;Laerm;58075;52.218;4.640;2022-10-10T00:14:07;40.03;37.18;43.52;;
69617;Laerm;58075;52.218;4.640;2022-10-10T00:14:17;41.05;37.48;45.23;;
69617;Laerm;58075;52.218;4.640;2022-10-10T00:14:27;42.70;40.00;45.21;;
69617;Laerm;58075;52.218;4.640;2022-10-10T00:14:37;41.87;39.16;44.48;;
69617;Laerm;58075;52.218;4.640;2022-10-10T00:14:48;42.13;40.09;44.63;;
69617;Laerm;58075;52.218;4.640;2022-10-10T00:14:58;42.22;38.99;45.54;;
69617;Laerm;58075;52.218;4.640;2022-10-10T00:15:09;42.14;38.42;45.23;;
69617;Laerm;58075;52.218;4.640;2022-10-10T00:15:20;41.15;37.31;46.43;;
69617;Laerm;58075;52.218;4.640;2022-10-10T00:15:30;40.88;38.26;43.67;;
69617;Laerm;58075;52.218;4.640;2022-10-10T00:15:41;44.01;39.38;49.04;;
69617;Laerm;58075;52.218;4.640;2022-10-10T00:15:51;43.29;39.80;47.69;;
69617;Laerm;58075;52.218;4.640;2022-10-10T00:16:02;41.81;37.68;47.37;;
69617;Laerm;58075;52.218;4.640;2022-10-10T00:16:13;39.62;37.28;41.81;;
69617;Laerm;58075;52.218;4.640;2022-10-10T00:16:24;39.13;36.88;43.24;;
69617;Laerm;58075;52.218;4.640;2022-10-10T00:16:34;40.14;37.13;43.01;;
69617;Laerm;58075;52.218;4.640;2022-10-10T00:16:45;39.01;36.67;42.22;;
69617;Laerm;58075;52.218;4.640;2022-10-10T00:16:55;42.71;39.40;46.20;;
69617;Laerm;58075;52.218;4.640;2022-10-10T00:17:05;42.24;39.35;45.67;;
69617;Laerm;58075;52.218;4.640;2022-10-10T00:17:16;42.76;40.15;46.45;;
69617;Laerm;58075;52.218;4.640;2022-10-10T00:17:26;41.87;39.63;44.55;;
69617;Laerm;58075;52.218;4.640;2022-10-10T00:17:37;42.77;39.24;47.77;;
69617;Laerm;58075;52.218;4.640;2022-10-10T00:17:47;39.83;37.03;42.45;;
69617;Laerm;58075;52.218;4.640;2022-10-10T00:17:57;39.94;37.01;42.22;;
69617;Laerm;58075;52.218;4.640;2022-10-10T00:18:08;39.73;37.37;43.06;;
69617;Laerm;58075;52.218;4.640;2022-10-10T00:18:18;38.63;35.88;46.67;;
69617;Laerm;58075;52.218;4.640;2022-10-10T00:18:28;38.60;35.91;42.44;;
69617;Laerm;58075;52.218;4.640;2022-10-10T00:18:39;38.69;35.40;40.93;;
69617;Laerm;58075;52.218;4.640;2022-10-10T00:18:50;37.82;35.96;39.85;;
69617;Laerm;58075;52.218;4.640;2022-10-10T00:19:01;39.37;36.95;42.47;;
69617;Laerm;58075;52.218;4.640;2022-10-10T00:19:11;39.71;36.30;44.05;;
69617;Laerm;58075;52.218;4.640;2022-10-10T00:19:21;39.16;37.11;42.26;;
69617;Laerm;58075;52.218;4.640;2022-10-10T00:19:32;39.90;37.19;43.25;;
69617;Laerm;58075;52.218;4.640;2022-10-10T00:19:42;38.78;35.37;44.44;;
69617;Laerm;58075;52.218;4.640;2022-10-10T00:19:52;38.19;35.22;41.65;;
69617;Laerm;58075;52.218;4.640;2022-10-10T00:20:03;38.83;35.93;42.69;;
69617;Laerm;58075;52.218;4.640;2022-10-10T00:20:14;37.66;34.93;41.35;;
69617;Laerm;58075;52.218;4.640;2022-10-10T00:20:25;36.36;34.19;39.01;;
69617;Laerm;58075;52.218;4.640;2022-10-10T00:20:36;36.45;34.22;38.93;;
69617;Laerm;58075;52.218;4.640;2022-10-10T00:20:46;38.08;35.01;41.60;;
69617;Laerm;58075;52.218;4.640;2022-10-10T00:20:56;37.98;35.66;40.95;;
69617;Laerm;58075;52.218;4.640;2022-10-10T00:21:07;40.47;36.45;43.44;;
69617;Laerm;58075;52.218;4.640;2022-10-10T00:21:18;39.88;35.45;44.15;;
69617;Laerm;58075;52.218;4.640;2022-10-10T00:21:28;39.20;36.81;41.67;;
69617;Laerm;58075;52.218;4.640;2022-10-10T00:21:38;39.51;36.48;42.50;;
69617;Laerm;58075;52.218;4.640;2022-10-10T00:21:49;38.59;35.43;41.48;;
69617;Laerm;58075;52.218;4.640;2022-10-10T00:21:59;38.22;35.33;42.13;;
69617;Laerm;58075;52.218;4.640;2022-10-10T00:22:09;38.39;35.76;41.05;;
69617;Laerm;58075;52.218;4.640;2022-10-10T00:22:20;41.54;37.30;47.09;;
69617;Laerm;58075;52.218;4.640;2022-10-10T00:22:30;42.58;39.24;46.28;;
69617;Laerm;58075;52.218;4.640;2022-10-10T00:22:40;42.05;39.31;44.86;;
69617;Laerm;58075;52.218;4.640;2022-10-10T00:22:50;42.21;38.64;45.86;;
69617;Laerm;58075;52.218;4.640;2022-10-10T00:23:01;40.17;37.64;42.33;;
69617;Laerm;58075;52.218;4.640;2022-10-10T00:23:11;41.17;38.06;43.96;;
69617;Laerm;58075;52.218;4.640;2022-10-10T00:23:21;40.75;38.34;44.54;;
69617;Laerm;58075;52.218;4.640;2022-10-10T00:23:32;39.26;36.47;42.54;;
69617;Laerm;58075;52.218;4.640;2022-10-10T00:23:42;39.16;36.03;41.43;;
69617;Laerm;58075;52.218;4.640;2022-10-10T00:23:53;39.06;36.44;41.15;;
69617;Laerm;58075;52.218;4.640;2022-10-10T00:24:03;39.18;36.06;42.65;;
69617;Laerm;58075;52.218;4.640;2022-10-10T00:24:13;40.27;37.14;43.49;;
69617;Laerm;58075;52.218;4.640;2022-10-10T00:24:24;40.00;37.26;42.55;;
69617;Laerm;58075;52.218;4.640;2022-10-10T00:24:34;39.63;37.34;43.37;;
69617;Laerm;58075;52.218;4.640;2022-10-10T00:24:44;38.79;36.57;41.69;;
69617;Laerm;58075;52.218;4.640;2022-10-10T00:24:55;40.12;36.61;43.31;;
69617;Laerm;58075;52.218;4.640;2022-10-10T00:25:05;38.89;36.56;41.19;;
69617;Laerm;58075;52.218;4.640;2022-10-10T00:25:16;38.62;36.69;41.02;;
69617;Laerm;58075;52.218;4.640;2022-10-10T00:25:26;39.06;36.44;42.31;;
69617;Laerm;58075;52.218;4.640;2022-10-10T00:25:37;39.29;35.79;42.41;;
69617;Laerm;58075;52.218;4.640;2022-10-10T00:25:47;38.55;36.30;41.49;;
69617;Laerm;58075;52.218;4.640;2022-10-10T00:25:58;40.07;37.46;43.51;;
69617;Laerm;58075;52.218;4.640;2022-10-10T00:26:08;38.51;35.77;41.49;;
69617;Laerm;58075;52.218;4.640;2022-10-10T00:26:19;39.25;36.46;43.37;;
69617;Laerm;58075;52.218;4.640;2022-10-10T00:26:29;37.37;35.01;40.20;;
69617;Laerm;58075;52.218;4.640;2022-10-10T00:26:39;38.36;35.56;42.98;;
69617;Laerm;58075;52.218;4.640;2022-10-10T00:26:50;37.00;34.54;40.74;;
69617;Laerm;58075;52.218;4.640;2022-10-10T00:27:00;36.10;33.99;38.59;;
69617;Laerm;58075;52.218;4.640;2022-10-10T00:27:10;37.97;34.02;43.27;;
69617;Laerm;58075;52.218;4.640;2022-10-10T00:27:20;36.90;34.42;40.10;;
69617;Laerm;58075;52.218;4.640;2022-10-10T00:27:31;37.27;34.71;40.25;;
69617;Laerm;58075;52.218;4.640;2022-10-10T00:27:41;38.66;35.44;43.11;;
69617;Laerm;58075;52.218;4.640;2022-10-10T00:27:51;38.69;36.55;43.41;;
69617;Laerm;58075;52.218;4.640;2022-10-10T00:28:02;38.96;36.28;42.99;;
69617;Laerm;58075;52.218;4.640;2022-10-10T00:28:13;39.47;37.46;42.12;;
69617;Laerm;58075;52.218;4.640;2022-10-10T00:28:23;39.41;36.96;42.16;;
69617;Laerm;58075;52.218;4.640;2022-10-10T00:28:33;45.45;38.73;52.67;;
69617;Laerm;58075;52.218;4.640;2022-10-10T00:28:47;42.41;38.40;48.00;;
69617;Laerm;58075;52.218;4.640;2022-10-10T00:28:57;38.78;35.54;42.73;;
69617;Laerm;58075;52.218;4.640;2022-10-10T00:29:08;36.39;33.99;40.75;;
69617;Laerm;58075;52.218;4.640;2022-10-10T00:29:18;38.44;35.45;41.48;;
69617;Laerm;58075;52.218;4.640;2022-10-10T00:29:28;39.76;35.57;43.74;;
69617;Laerm;58075;52.218;4.640;2022-10-10T00:29:38;39.78;37.47;45.31;;
69617;Laerm;58075;52.218;4.640;2022-10-10T00:29:49;39.45;36.97;41.53;;
69617;Laerm;58075;52.218;4.640;2022-10-10T00:29:59;41.55;38.09;44.51;;
69617;Laerm;58075;52.218;4.640;2022-10-10T00:30:10;40.15;37.35;43.56;;
69617;Laerm;58075;52.218;4.640;2022-10-10T00:30:20;39.96;36.93;43.62;;
69617;Laerm;58075;52.218;4.640;2022-10-10T00:30:30;40.44;37.70;43.44;;
69617;Laerm;58075;52.218;4.640;2022-10-10T00:30:41;39.70;34.91;42.73;;
69617;Laerm;58075;52.218;4.640;2022-10-10T00:30:51;39.47;36.61;43.48;;
69617;Laerm;58075;52.218;4.640;2022-10-10T00:31:02;39.80;37.33;43.79;;
69617;Laerm;58075;52.218;4.640;2022-10-10T00:31:13;40.44;38.11;43.22;;
69617;Laerm;58075;52.218;4.640;2022-10-10T00:31:23;41.18;38.55;45.19;;
69617;Laerm;58075;52.218;4.640;2022-10-10T00:31:33;39.74;36.39;42.56;;
69617;Laerm;58075;52.218;4.640;2022-10-10T00:31:43;40.16;37.35;45.12;;
69617;Laerm;58075;52.218;4.640;2022-10-10T00:31:54;38.69;35.72;41.86;;
69617;Laerm;58075;52.218;4.640;2022-10-10T00:32:04;38.75;36.27;42.25;;
69617;Laerm;58075;52.218;4.640;2022-10-10T00:32:14;39.35;35.44;43.57;;
69617;Laerm;58075;52.218;4.640;2022-10-10T00:32:25;39.14;36.52;42.44;;
69617;Laerm;58075;52.218;4.640;2022-10-10T00:32:36;38.14;35.52;42.84;;
69617;Laerm;58075;52.218;4.640;2022-10-10T00:32:46;37.86;34.77;40.02;;
69617;Laerm;58075;52.218;4.640;2022-10-10T00:32:57;38.83;36.69;41.39;;
69617;Laerm;58075;52.218;4.640;2022-10-10T00:33:08;38.75;36.11;41.06;;
69617;Laerm;58075;52.218;4.640;2022-10-10T00:33:18;38.83;35.50;45.35;;
69617;Laerm;58075;52.218;4.640;2022-10-10T00:33:28;37.51;35.14;40.18;;
69617;Laerm;58075;52.218;4.640;2022-10-10T00:33:39;39.86;37.24;43.06;;
69617;Laerm;58075;52.218;4.640;2022-10-10T00:33:49;38.59;35.38;41.20;;
69617;Laerm;58075;52.218;4.640;2022-10-10T00:33:59;38.62;36.01;41.78;;
69617;Laerm;58075;52.218;4.640;2022-10-10T00:34:10;38.96;35.47;41.17;;
69617;Laerm;58075;52.218;4.640;2022-10-10T00:34:20;38.70;35.75;42.82;;
69617;Laerm;58075;52.218;4.640;2022-10-10T00:34:30;37.89;35.08;40.93;;
69617;Laerm;58075;52.218;4.640;2022-10-10T00:34:41;38.57;35.84;41.70;;
69617;Laerm;58075;52.218;4.640;2022-10-10T00:34:51;40.34;37.67;42.53;;
69617;Laerm;58075;52.218;4.640;2022-10-10T00:35:02;40.40;38.10;43.03;;
69617;Laerm;58075;52.218;4.640;2022-10-10T00:35:12;41.01;38.60;44.57;;
69617;Laerm;58075;52.218;4.640;2022-10-10T00:35:23;41.00;38.12;43.66;;
69617;Laerm;58075;52.218;4.640;2022-10-10T00:35:33;41.03;38.89;43.97;;
69617;Laerm;58075;52.218;4.640;2022-10-10T00:35:43;41.67;38.20;45.22;;
69617;Laerm;58075;52.218;4.640;2022-10-10T00:35:54;39.36;36.48;42.86;;
69617;Laerm;58075;52.218;4.640;2022-10-10T00:36:04;39.91;36.48;44.34;;
69617;Laerm;58075;52.218;4.640;2022-10-10T00:36:15;39.04;35.75;42.10;;
69617;Laerm;58075;52.218;4.640;2022-10-10T00:36:26;37.10;34.44;42.46;;
69617;Laerm;58075;52.218;4.640;2022-10-10T00:36:36;37.10;34.66;39.17;;
69617;Laerm;58075;52.218;4.640;2022-10-10T00:36:46;37.98;35.20;42.13;;
69617;Laerm;58075;52.218;4.640;2022-10-10T00:36:57;40.64;38.12;43.16;;
69617;Laerm;58075;52.218;4.640;2022-10-10T00:37:07;41.15;38.65;43.48;;
69617;Laerm;58075;52.218;4.640;2022-10-10T00:37:18;41.16;38.43;43.50;;
69617;Laerm;58075;52.218;4.640;2022-10-10T00:37:28;39.95;37.50;42.41;;
69617;Laerm;58075;52.218;4.640;2022-10-10T00:37:38;39.69;36.99;42.83;;
69617;Laerm;58075;52.218;4.640;2022-10-10T00:37:48;39.00;36.41;41.08;;
69617;Laerm;58075;52.218;4.640;2022-10-10T00:37:59;39.75;37.57;41.75;;
69617;Laerm;58075;52.218;4.640;2022-10-10T00:38:09;40.26;37.49;43.21;;
69617;Laerm;58075;52.218;4.640;2022-10-10T00:38:19;39.09;36.69;41.30;;
69617;Laerm;58075;52.218;4.640;2022-10-10T00:38:30;40.05;37.73;42.68;;
69617;Laerm;58075;52.218;4.640;2022-10-10T00:38:41;39.67;37.00;42.70;;
69617;Laerm;58075;52.218;4.640;2022-10-10T00:38:51;38.03;35.92;40.34;;
69617;Laerm;58075;52.218;4.640;2022-10-10T00:39:02;37.53;35.41;41.59;;
69617;Laerm;58075;52.218;4.640;2022-10-10T00:39:12;39.39;36.72;42.20;;
69617;Laerm;58075;52.218;4.640;2022-10-10T00:39:22;39.83;36.39;42.58;;
69617;Laerm;58075;52.218;4.640;2022-10-10T00:39:33;38.02;35.46;40.76;;
69617;Laerm;58075;52.218;4.640;2022-10-10T00:39:43;38.15;35.58;40.58;;
69617;Laerm;58075;52.218;4.640;2022-10-10T00:39:53;39.12;36.50;42.43;;
69617;Laerm;58075;52.218;4.640;2022-10-10T00:40:04;40.11;37.57;43.65;;
69617;Laerm;58075;52.218;4.640;2022-10-10T00:40:14;39.47;37.16;41.33;;
69617;Laerm;58075;52.218;4.640;2022-10-10T00:40:25;39.08;36.16;42.20;;
69617;Laerm;58075;52.218;4.640;2022-10-10T00:40:42;39.49;36.84;42.58;;
69617;Laerm;58075;52.218;4.640;2022-10-10T00:40:54;40.10;37.87;42.63;;
69617;Laerm;58075;52.218;4.640;2022-10-10T00:41:04;40.12;37.14;44.57;;
69617;Laerm;58075;52.218;4.640;2022-10-10T00:41:15;39.53;36.77;41.95;;
69617;Laerm;58075;52.218;4.640;2022-10-10T00:41:25;38.71;36.60;41.72;;
69617;Laerm;58075;52.218;4.640;2022-10-10T00:41:35;38.95;36.67;43.03;;
69617;Laerm;58075;52.218;4.640;2022-10-10T00:41:46;42.21;37.11;47.97;;
69617;Laerm;58075;52.218;4.640;2022-10-10T00:41:56;42.19;38.14;47.04;;
69617;Laerm;58075;52.218;4.640;2022-10-10T00:42:09;40.68;37.92;43.82;;
69617;Laerm;58075;52.218;4.640;2022-10-10T00:42:20;42.55;39.08;45.10;;
69617;Laerm;58075;52.218;4.640;2022-10-10T00:42:30;39.22;36.70;42.77;;
69617;Laerm;58075;52.218;4.640;2022-10-10T00:42:40;38.40;35.89;41.33;;
69617;Laerm;58075;52.218;4.640;2022-10-10T00:42:51;39.09;36.59;42.78;;
69617;Laerm;58075;52.218;4.640;2022-10-10T00:43:01;38.04;36.19;40.72;;
69617;Laerm;58075;52.218;4.640;2022-10-10T00:43:12;39.23;37.06;42.54;;
69617;Laerm;58075;52.218;4.640;2022-10-10T00:43:23;39.65;37.38;43.12;;
69617;Laerm;58075;52.218;4.640;2022-10-10T00:43:34;40.34;37.67;43.26;;
69617;Laerm;58075;52.218;4.640;2022-10-10T00:44:03;39.53;37.24;45.25;;
69617;Laerm;58075;52.218;4.640;2022-10-10T00:44:15;38.10;35.22;40.67;;
69617;Laerm;58075;52.218;4.640;2022-10-10T00:44:25;39.63;36.68;42.64;;
69617;Laerm;58075;52.218;4.640;2022-10-10T00:44:36;40.82;38.06;43.43;;
69617;Laerm;58075;52.218;4.640;2022-10-10T00:44:46;41.65;38.12;48.16;;
69617;Laerm;58075;52.218;4.640;2022-10-10T00:45:46;37.00;34.77;39.17;;
69617;Laerm;58075;52.218;4.640;2022-10-10T00:45:57;38.77;35.11;42.12;;
69617;Laerm;58075;52.218;4.640;2022-10-10T00:46:07;40.77;38.12;43.32;;
69617;Laerm;58075;52.218;4.640;2022-10-10T00:46:17;39.50;37.36;41.56;;
69617;Laerm;58075;52.218;4.640;2022-10-10T00:46:28;38.52;36.38;40.34;;
69617;Laerm;58075;52.218;4.640;2022-10-10T00:46:38;41.53;37.98;44.07;;
69617;Laerm;58075;52.218;4.640;2022-10-10T00:46:49;41.40;38.49;45.41;;
69617;Laerm;58075;52.218;4.640;2022-10-10T00:46:59;40.29;36.99;44.08;;
69617;Laerm;58075;52.218;4.640;2022-10-10T00:47:09;39.34;36.84;42.30;;
69617;Laerm;58075;52.218;4.640;2022-10-10T00:47:20;41.47;38.31;46.15;;
69617;Laerm;58075;52.218;4.640;2022-10-10T00:47:30;41.63;38.72;44.64;;
69617;Laerm;58075;52.218;4.640;2022-10-10T00:47:40;39.98;37.87;41.99;;
69617;Laerm;58075;52.218;4.640;2022-10-10T00:47:51;39.46;36.14;43.03;;
69617;Laerm;58075;52.218;4.640;2022-10-10T00:48:06;39.48;36.63;44.25;;
69617;Laerm;58075;52.218;4.640;2022-10-10T00:48:28;39.22;34.95;42.41;;
69617;Laerm;58075;52.218;4.640;2022-10-10T00:48:41;39.93;36.76;44.04;;
69617;Laerm;58075;52.218;4.640;2022-10-10T00:48:52;38.38;35.88;44.28;;
69617;Laerm;58075;52.218;4.640;2022-10-10T00:49:03;38.85;36.43;41.46;;
69617;Laerm;58075;52.218;4.640;2022-10-10T00:49:19;40.29;37.56;43.35;;
69617;Laerm;58075;52.218;4.640;2022-10-10T00:49:32;41.09;37.92;44.61;;
69617;Laerm;58075;52.218;4.640;2022-10-10T00:49:45;39.21;36.67;41.83;;
69617;Laerm;58075;52.218;4.640;2022-10-10T00:49:55;39.19;36.20;41.56;;
69617;Laerm;58075;52.218;4.640;2022-10-10T00:50:06;39.81;37.23;42.97;;
69617;Laerm;58075;52.218;4.640;2022-10-10T00:50:17;39.41;36.99;42.23;;
69617;Laerm;58075;52.218;4.640;2022-10-10T00:50:28;39.61;37.18;43.63;;
69617;Laerm;58075;52.218;4.640;2022-10-10T00:50:42;38.37;36.05;42.21;;
69617;Laerm;58075;52.218;4.640;2022-10-10T00:50:58;39.10;35.72;43.92;;
69617;Laerm;58075;52.218;4.640;2022-10-10T00:51:11;40.05;36.00;45.10;;
69617;Laerm;58075;52.218;4.640;2022-10-10T00:51:22;39.61;36.19;42.89;;
69617;Laerm;58075;52.218;4.640;2022-10-10T00:51:33;41.72;38.94;44.73;;
69617;Laerm;58075;52.218;4.640;2022-10-10T00:51:46;41.58;38.40;46.59;;
69617;Laerm;58075;52.218;4.640;2022-10-10T00:51:57;39.94;37.49;43.00;;
69617;Laerm;58075;52.218;4.640;2022-10-10T00:52:08;40.03;37.30;43.46;;
69617;Laerm;58075;52.218;4.640;2022-10-10T00:52:20;40.46;35.72;51.49;;
69617;Laerm;58075;52.218;4.640;2022-10-10T00:52:30;36.23;34.14;38.35;;
69617;Laerm;58075;52.218;4.640;2022-10-10T00:52:41;35.80;33.69;38.54;;
69617;Laerm;58075;52.218;4.640;2022-10-10T00:52:51;37.72;34.06;41.10;;
69617;Laerm;58075;52.218;4.640;2022-10-10T00:53:03;40.03;36.60;43.98;;
69617;Laerm;58075;52.218;4.640;2022-10-10T00:53:15;38.17;34.66;42.67;;
69617;Laerm;58075;52.218;4.640;2022-10-10T00:53:32;37.91;35.12;41.62;;
69617;Laerm;58075;52.218;4.640;2022-10-10T00:53:44;39.76;37.55;43.36;;
69617;Laerm;58075;52.218;4.640;2022-10-10T00:53:56;41.95;38.54;45.87;;
69617;Laerm;58075;52.218;4.640;2022-10-10T00:54:08;40.37;36.52;43.64;;
69617;Laerm;58075;52.218;4.640;2022-10-10T00:54:20;39.75;36.76;44.43;;
69617;Laerm;58075;52.218;4.640;2022-10-10T00:54:31;39.51;35.97;42.31;;
69617;Laerm;58075;52.218;4.640;2022-10-10T00:54:42;40.75;37.73;44.40;;
69617;Laerm;58075;52.218;4.640;2022-10-10T00:54:52;42.95;38.63;47.46;;
69617;Laerm;58075;52.218;4.640;2022-10-10T00:55:03;40.52;35.81;46.53;;
69617;Laerm;58075;52.218;4.640;2022-10-10T00:55:13;38.83;36.16;41.99;;
69617;Laerm;58075;52.218;4.640;2022-10-10T00:55:24;40.37;37.23;45.08;;
69617;Laerm;58075;52.218;4.640;2022-10-10T00:55:34;41.05;37.61;45.87;;
69617;Laerm;58075;52.218;4.640;2022-10-10T00:55:45;41.34;38.54;45.68;;
69617;Laerm;58075;52.218;4.640;2022-10-10T00:55:56;41.10;37.98;44.94;;
69617;Laerm;58075;52.218;4.640;2022-10-10T00:56:08;39.66;37.38;43.30;;
69617;Laerm;58075;52.218;4.640;2022-10-10T00:56:20;41.10;38.87;45.47;;
69617;Laerm;58075;52.218;4.640;2022-10-10T00:56:36;39.87;37.22;42.61;;
69617;Laerm;58075;52.218;4.640;2022-10-10T00:56:51;39.31;36.44;42.73;;
69617;Laerm;58075;52.218;4.640;2022-10-10T00:57:05;40.42;36.51;43.72;;
69617;Laerm;58075;52.218;4.640;2022-10-10T00:57:16;40.80;37.21;47.31;;
69617;Laerm;58075;52.218;4.640;2022-10-10T00:57:27;41.19;37.98;45.11;;
69617;Laerm;58075;52.218;4.640;2022-10-10T00:57:37;40.17;37.55;43.26;;
69617;Laerm;58075;52.218;4.640;2022-10-10T00:57:48;40.18;36.86;43.45;;
69617;Laerm;58075;52.218;4.640;2022-10-10T00:57:58;40.31;37.29;43.48;;
69617;Laerm;58075;52.218;4.640;2022-10-10T00:58:09;38.65;36.25;41.35;;
69617;Laerm;58075;52.218;4.640;2022-10-10T00:58:19;38.92;36.34;41.39;;
69617;Laerm;58075;52.218;4.640;2022-10-10T00:58:30;40.26;37.51;43.19;;
69617;Laerm;58075;52.218;4.640;2022-10-10T00:58:42;40.70;38.20;43.83;;
69617;Laerm;58075;52.218;4.640;2022-10-10T00:58:54;41.22;36.74;46.20;;
69617;Laerm;58075;52.218;4.640;2022-10-10T00:59:05;38.60;35.92;42.45;;
69617;Laerm;58075;52.218;4.640;2022-10-10T00:59:17;37.44;34.86;42.90;;
69617;Laerm;58075;52.218;4.640;2022-10-10T00:59:30;38.83;36.01;42.76;;
69617;Laerm;58075;52.218;4.640;2022-10-10T00:59:41;36.69;34.40;39.80;;
69617;Laerm;58075;52.218;4.640;2022-10-10T00:59:52;37.56;34.61;41.59;;
69617;Laerm;58075;52.218;4.640;2022-10-10T01:00:03;39.19;36.34;42.35;;
69617;Laerm;58075;52.218;4.640;2022-10-10T01:00:13;40.30;38.03;43.10;;
69617;Laerm;58075;52.218;4.640;2022-10-10T01:00:24;40.65;38.07;43.09;;
69617;Laerm;58075;52.218;4.640;2022-10-10T01:00:34;39.84;37.45;42.70;;
69617;Laerm;58075;52.218;4.640;2022-10-10T01:00:44;40.13;36.97;44.22;;
69617;Laerm;58075;52.218;4.640;2022-10-10T01:00:55;39.48;36.60;43.61;;
69617;Laerm;58075;52.218;4.640;2022-10-10T01:01:06;43.07;37.99;47.86;;
69617;Laerm;58075;52.218;4.640;2022-10-10T01:01:17;39.07;35.32;45.90;;
69617;Laerm;58075;52.218;4.640;2022-10-10T01:01:27;37.36;34.11;40.63;;